NSZ3859 EGPH-EKBI
Flight info
| Callsign | NSZ3859 |
|---|---|
| Flight time | 1h 17m |
| Altitude | 37000 |
| Route | GRICE P600 ASNUD DCT ELSAN DCT VAXIT DCT GELBA |
| Aircraft | A320/M-SDE3FGHIRWY/LB1 |
Departure
| Time | 2026-04-21 17:29 |
|---|---|
| Airport | Edinburgh Airport (EGPH) |
Arrival
| Time | 2026-04-21 18:47 |
|---|---|
| Airport | Billund Airport (EKBI) |
| Time | Latitude | Longitude | Altitude | Speed | Heading |
|---|---|---|---|---|---|
| 2026-04-21 16:59 | 55.95016 | -3.36021 | 117 ft | 0 kts | 244° |
| 2026-04-21 17:16 | 55.95021 | -3.36002 | 112 ft | 2 kts | 243° |
| 2026-04-21 17:16 | 55.95028 | -3.35976 | 113 ft | 2 kts | 244° |
| 2026-04-21 17:16 | 55.95035 | -3.35949 | 112 ft | 2 kts | 245° |
| 2026-04-21 17:16 | 55.95042 | -3.35922 | 112 ft | 2 kts | 246° |
| 2026-04-21 17:17 | 55.95049 | -3.35895 | 113 ft | 2 kts | 251° |
| 2026-04-21 17:17 | 55.95053 | -3.35867 | 113 ft | 2 kts | 281° |
| 2026-04-21 17:17 | 55.95050 | -3.35850 | 113 ft | 1 kts | 302° |
| 2026-04-21 17:17 | 55.95050 | -3.35849 | 113 ft | 0 kts | 302° |
| 2026-04-21 17:19 | 55.95052 | -3.35854 | 113 ft | 2 kts | 302° |
| 2026-04-21 17:19 | 55.95082 | -3.35954 | 116 ft | 13 kts | 295° |
| 2026-04-21 17:19 | 55.95111 | -3.36096 | 116 ft | 3 kts | 288° |
| 2026-04-21 17:20 | 55.95112 | -3.36101 | 116 ft | 0 kts | 288° |
| 2026-04-21 17:21 | 55.95115 | -3.36116 | 113 ft | 3 kts | 288° |
| 2026-04-21 17:21 | 55.95126 | -3.36180 | 115 ft | 10 kts | 288° |
| 2026-04-21 17:22 | 55.95122 | -3.36318 | 113 ft | 20 kts | 237° |
| 2026-04-21 17:22 | 55.95033 | -3.36581 | 113 ft | 20 kts | 239° |
| 2026-04-21 17:22 | 55.94968 | -3.36772 | 113 ft | 17 kts | 239° |
| 2026-04-21 17:22 | 55.94902 | -3.36964 | 116 ft | 16 kts | 239° |
| 2026-04-21 17:23 | 55.94841 | -3.37148 | 115 ft | 18 kts | 239° |
| 2026-04-21 17:23 | 55.94792 | -3.37289 | 116 ft | 13 kts | 238° |
| 2026-04-21 17:23 | 55.94751 | -3.37410 | 114 ft | 6 kts | 239° |
| 2026-04-21 17:23 | 55.94705 | -3.37545 | 113 ft | 12 kts | 239° |
| 2026-04-21 17:24 | 55.94672 | -3.37643 | 115 ft | 10 kts | 239° |
| 2026-04-21 17:24 | 55.94625 | -3.37781 | 113 ft | 15 kts | 238° |
| 2026-04-21 17:24 | 55.94577 | -3.37927 | 114 ft | 14 kts | 239° |
| 2026-04-21 17:24 | 55.94520 | -3.38093 | 114 ft | 17 kts | 239° |
| 2026-04-21 17:25 | 55.94456 | -3.38282 | 113 ft | 17 kts | 239° |
| 2026-04-21 17:25 | 55.94390 | -3.38477 | 114 ft | 16 kts | 239° |
| 2026-04-21 17:25 | 55.94333 | -3.38644 | 114 ft | 17 kts | 239° |
| 2026-04-21 17:25 | 55.94307 | -3.38721 | 115 ft | 1 kts | 239° |
| 2026-04-21 17:26 | 55.94301 | -3.38739 | 114 ft | 2 kts | 239° |
| 2026-04-21 17:26 | 55.94285 | -3.38790 | 115 ft | 7 kts | 245° |
| 2026-04-21 17:26 | 55.94299 | -3.38877 | 112 ft | 9 kts | 316° |
| 2026-04-21 17:26 | 55.94331 | -3.38914 | 116 ft | 5 kts | 328° |
| 2026-04-21 17:27 | 55.94375 | -3.38962 | 114 ft | 10 kts | 333° |
| 2026-04-21 17:27 | 55.94433 | -3.38919 | 114 ft | 0 kts | 58° |
| 2026-04-21 17:27 | 55.94434 | -3.38917 | 114 ft | 0 kts | 58° |
| 2026-04-21 17:29 | 55.94445 | -3.38886 | 114 ft | 17 kts | 58° |
| 2026-04-21 17:29 | 55.94639 | -3.38314 | 113 ft | 87 kts | 58° |
| 2026-04-21 17:29 | 55.95048 | -3.37112 | 113 ft | 137 kts | 60° |
| 2026-04-21 17:29 | 55.95540 | -3.35641 | 753 ft | 136 kts | 60° |
| 2026-04-21 17:30 | 55.96058 | -3.34228 | 1584 ft | 137 kts | 49° |
| 2026-04-21 17:30 | 55.96779 | -3.33053 | 2132 ft | 148 kts | 45° |
| 2026-04-21 17:30 | 55.97595 | -3.31736 | 2435 ft | 169 kts | 45° |
| 2026-04-21 17:30 | 55.98534 | -3.30218 | 2740 ft | 194 kts | 45° |
| 2026-04-21 17:31 | 55.99614 | -3.28538 | 3151 ft | 219 kts | 38° |
| 2026-04-21 17:31 | 56.01074 | -3.27298 | 3647 ft | 246 kts | 17° |
| 2026-04-21 17:31 | 56.02828 | -3.27067 | 4446 ft | 260 kts | 356° |
| 2026-04-21 17:31 | 56.04564 | -3.27998 | 5384 ft | 270 kts | 335° |
| 2026-04-21 17:32 | 56.05614 | -3.29302 | 6003 ft | 276 kts | 319° |
| 2026-04-21 17:32 | 56.06986 | -3.33162 | 7233 ft | 285 kts | 288° |
| 2026-04-21 17:32 | 56.07499 | -3.36611 | 8126 ft | 288 kts | 285° |
| 2026-04-21 17:32 | 56.08003 | -3.40113 | 8981 ft | 293 kts | 284° |
| 2026-04-21 17:33 | 56.08515 | -3.43676 | 9851 ft | 297 kts | 285° |
| 2026-04-21 17:33 | 56.09036 | -3.47287 | 10670 ft | 302 kts | 285° |
| 2026-04-21 17:33 | 56.09584 | -3.51069 | 10975 ft | 326 kts | 285° |
| 2026-04-21 17:33 | 56.10312 | -3.55025 | 11386 ft | 340 kts | 298° |
| 2026-04-21 17:34 | 56.11503 | -3.58723 | 12071 ft | 345 kts | 302° |
| 2026-04-21 17:34 | 56.12936 | -3.62176 | 12800 ft | 347 kts | 315° |
| 2026-04-21 17:34 | 56.14760 | -3.65018 | 13535 ft | 349 kts | 328° |
| 2026-04-21 17:34 | 56.16895 | -3.67091 | 14268 ft | 350 kts | 340° |
| 2026-04-21 17:35 | 56.19234 | -3.68228 | 14905 ft | 349 kts | 359° |
| 2026-04-21 17:35 | 56.21603 | -3.67615 | 15509 ft | 345 kts | 24° |
| 2026-04-21 17:35 | 56.23682 | -3.65517 | 16143 ft | 343 kts | 39° |
| 2026-04-21 17:35 | 56.25523 | -3.62779 | 16797 ft | 344 kts | 45° |
| 2026-04-21 17:36 | 56.27289 | -3.59846 | 17434 ft | 347 kts | 45° |
| 2026-04-21 17:36 | 56.29070 | -3.56963 | 18071 ft | 351 kts | 43° |
| 2026-04-21 17:36 | 56.30951 | -3.54132 | 18721 ft | 354 kts | 41° |
| 2026-04-21 17:36 | 56.32912 | -3.51401 | 19298 ft | 358 kts | 39° |
| 2026-04-21 17:37 | 56.34935 | -3.48740 | 19848 ft | 362 kts | 38° |
| 2026-04-21 17:37 | 56.36999 | -3.46107 | 20404 ft | 365 kts | 37° |
| 2026-04-21 17:37 | 56.38379 | -3.44358 | 20780 ft | 367 kts | 37° |
| 2026-04-21 17:37 | 56.41189 | -3.40787 | 21504 ft | 372 kts | 38° |
| 2026-04-21 17:38 | 56.43310 | -3.38066 | 22033 ft | 375 kts | 38° |
| 2026-04-21 17:38 | 56.45443 | -3.35327 | 22535 ft | 378 kts | 37° |
| 2026-04-21 17:38 | 56.47613 | -3.32608 | 23041 ft | 381 kts | 37° |
| 2026-04-21 17:38 | 56.49818 | -3.29897 | 23555 ft | 384 kts | 36° |
| 2026-04-21 17:39 | 56.52043 | -3.27175 | 24063 ft | 387 kts | 36° |
| 2026-04-21 17:39 | 56.54281 | -3.24427 | 24488 ft | 390 kts | 36° |
| 2026-04-21 17:39 | 56.56537 | -3.21644 | 24907 ft | 393 kts | 36° |
| 2026-04-21 17:39 | 56.58803 | -3.18839 | 25332 ft | 395 kts | 36° |
| 2026-04-21 17:40 | 56.61078 | -3.16012 | 25750 ft | 398 kts | 36° |
| 2026-04-21 17:40 | 56.63368 | -3.13153 | 26159 ft | 400 kts | 37° |
| 2026-04-21 17:40 | 56.65535 | -3.09983 | 26565 ft | 401 kts | 47° |
| 2026-04-21 17:40 | 56.67318 | -3.06102 | 26981 ft | 401 kts | 58° |
| 2026-04-21 17:41 | 56.68644 | -3.01721 | 27371 ft | 401 kts | 68° |
| 2026-04-21 17:41 | 56.69496 | -2.96885 | 27749 ft | 403 kts | 79° |
| 2026-04-21 17:41 | 56.69816 | -2.91868 | 28128 ft | 404 kts | 88° |
| 2026-04-21 17:41 | 56.69946 | -2.86748 | 28515 ft | 407 kts | 88° |
| 2026-04-21 17:42 | 56.70081 | -2.81589 | 28911 ft | 409 kts | 88° |
| 2026-04-21 17:42 | 56.70219 | -2.76391 | 29285 ft | 412 kts | 88° |
| 2026-04-21 17:42 | 56.70361 | -2.71169 | 29677 ft | 415 kts | 88° |
| 2026-04-21 17:42 | 56.70501 | -2.65900 | 30072 ft | 417 kts | 88° |
| 2026-04-21 17:43 | 56.70589 | -2.62392 | 30326 ft | 419 kts | 88° |
| 2026-04-21 17:43 | 56.70722 | -2.57076 | 30698 ft | 422 kts | 88° |
| 2026-04-21 17:43 | 56.70855 | -2.51721 | 31001 ft | 425 kts | 88° |
| 2026-04-21 17:43 | 56.70987 | -2.46331 | 31313 ft | 428 kts | 88° |
| 2026-04-21 17:44 | 56.71118 | -2.40908 | 31614 ft | 430 kts | 88° |
| 2026-04-21 17:44 | 56.71246 | -2.35454 | 31947 ft | 432 kts | 88° |
| 2026-04-21 17:44 | 56.71370 | -2.29990 | 32385 ft | 431 kts | 88° |
| 2026-04-21 17:44 | 56.71493 | -2.24538 | 32824 ft | 431 kts | 88° |
| 2026-04-21 17:45 | 56.71612 | -2.19092 | 33254 ft | 431 kts | 88° |
| 2026-04-21 17:45 | 56.71732 | -2.13642 | 33679 ft | 431 kts | 88° |
| 2026-04-21 17:45 | 56.71851 | -2.08177 | 34105 ft | 431 kts | 88° |
| 2026-04-21 17:45 | 56.71969 | -2.02716 | 34528 ft | 431 kts | 87° |
| 2026-04-21 17:46 | 56.72083 | -1.97266 | 34877 ft | 431 kts | 87° |
| 2026-04-21 17:46 | 56.72193 | -1.91804 | 35206 ft | 432 kts | 88° |
| 2026-04-21 17:46 | 56.72299 | -1.86332 | 35531 ft | 432 kts | 88° |
| 2026-04-21 17:46 | 56.72400 | -1.80871 | 35850 ft | 432 kts | 88° |
| 2026-04-21 17:47 | 56.72499 | -1.75403 | 36171 ft | 432 kts | 88° |
| 2026-04-21 17:47 | 56.72597 | -1.69938 | 36478 ft | 432 kts | 88° |
| 2026-04-21 17:47 | 56.72693 | -1.64467 | 36775 ft | 432 kts | 88° |
| 2026-04-21 17:47 | 56.72789 | -1.58984 | 37081 ft | 432 kts | 88° |
| 2026-04-21 17:48 | 56.72882 | -1.53569 | 37376 ft | 432 kts | 88° |
| 2026-04-21 17:48 | 56.72972 | -1.48085 | 37533 ft | 434 kts | 88° |
| 2026-04-21 17:48 | 56.73147 | -1.37096 | 37550 ft | 433 kts | 88° |
| 2026-04-21 17:49 | 56.73308 | -1.26193 | 37558 ft | 433 kts | 88° |
| 2026-04-21 17:49 | 56.73461 | -1.15235 | 37560 ft | 433 kts | 88° |
| 2026-04-21 17:50 | 56.73598 | -1.04280 | 37558 ft | 432 kts | 88° |
| 2026-04-21 17:50 | 56.73732 | -0.93335 | 37556 ft | 433 kts | 88° |
| 2026-04-21 17:51 | 56.73859 | -0.82373 | 37561 ft | 433 kts | 88° |
| 2026-04-21 17:51 | 56.73978 | -0.71378 | 37567 ft | 433 kts | 88° |
| 2026-04-21 17:52 | 56.74085 | -0.60401 | 37567 ft | 433 kts | 88° |
| 2026-04-21 17:52 | 56.74189 | -0.49446 | 37564 ft | 433 kts | 88° |
| 2026-04-21 17:53 | 56.74279 | -0.38551 | 37561 ft | 432 kts | 89° |
| 2026-04-21 17:53 | 56.74345 | -0.27593 | 37558 ft | 432 kts | 89° |
| 2026-04-21 17:54 | 56.74402 | -0.16646 | 37556 ft | 432 kts | 89° |
| 2026-04-21 17:54 | 56.74462 | -0.05704 | 37558 ft | 432 kts | 89° |
| 2026-04-21 17:55 | 56.74516 | 0.05236 | 37531 ft | 432 kts | 89° |
| 2026-04-21 17:55 | 56.74555 | 0.16177 | 37540 ft | 432 kts | 89° |
| 2026-04-21 17:56 | 56.74585 | 0.27133 | 37547 ft | 432 kts | 89° |
| 2026-04-21 17:56 | 56.74602 | 0.38077 | 37545 ft | 432 kts | 89° |
| 2026-04-21 17:57 | 56.74608 | 0.49026 | 37550 ft | 432 kts | 89° |
| 2026-04-21 17:57 | 56.74611 | 0.59969 | 37553 ft | 432 kts | 89° |
| 2026-04-21 17:58 | 56.74600 | 0.70848 | 37545 ft | 432 kts | 90° |
| 2026-04-21 17:58 | 56.74580 | 0.81796 | 37548 ft | 432 kts | 90° |
| 2026-04-21 17:59 | 56.74553 | 0.92721 | 37546 ft | 431 kts | 90° |
| 2026-04-21 17:59 | 56.74518 | 1.03650 | 37538 ft | 431 kts | 90° |
| 2026-04-21 18:00 | 56.74464 | 1.14569 | 37538 ft | 431 kts | 90° |
| 2026-04-21 18:00 | 56.74407 | 1.25490 | 37538 ft | 431 kts | 90° |
| 2026-04-21 18:01 | 56.74343 | 1.36424 | 37536 ft | 431 kts | 90° |
| 2026-04-21 18:01 | 56.74272 | 1.47351 | 37537 ft | 431 kts | 90° |
| 2026-04-21 18:02 | 56.74189 | 1.58286 | 37539 ft | 431 kts | 90° |
| 2026-04-21 18:02 | 56.74086 | 1.69142 | 37541 ft | 431 kts | 90° |
| 2026-04-21 18:03 | 56.73974 | 1.80137 | 37541 ft | 431 kts | 90° |
| 2026-04-21 18:03 | 56.73863 | 1.90991 | 37536 ft | 431 kts | 91° |
| 2026-04-21 18:04 | 56.73740 | 2.01909 | 37534 ft | 431 kts | 91° |
| 2026-04-21 18:04 | 56.73606 | 2.12827 | 37530 ft | 431 kts | 91° |
| 2026-04-21 18:05 | 56.73467 | 2.23733 | 37527 ft | 431 kts | 91° |
| 2026-04-21 18:05 | 56.73314 | 2.34632 | 37522 ft | 431 kts | 91° |
| 2026-04-21 18:06 | 56.73152 | 2.45534 | 37514 ft | 430 kts | 91° |
| 2026-04-21 18:06 | 56.72978 | 2.56443 | 37506 ft | 430 kts | 91° |
| 2026-04-21 18:07 | 56.72794 | 2.67268 | 37510 ft | 430 kts | 91° |
| 2026-04-21 18:07 | 56.72603 | 2.78164 | 37508 ft | 430 kts | 92° |
| 2026-04-21 18:08 | 56.72405 | 2.89048 | 37508 ft | 430 kts | 92° |
| 2026-04-21 18:08 | 56.72201 | 2.99924 | 37513 ft | 430 kts | 92° |
| 2026-04-21 18:09 | 56.71993 | 3.10787 | 37520 ft | 429 kts | 92° |
| 2026-04-21 18:09 | 56.71760 | 3.21651 | 37524 ft | 429 kts | 92° |
| 2026-04-21 18:10 | 56.71517 | 3.32505 | 37523 ft | 429 kts | 92° |
| 2026-04-21 18:10 | 56.71271 | 3.43346 | 37521 ft | 429 kts | 92° |
| 2026-04-21 18:11 | 56.71017 | 3.54185 | 37518 ft | 428 kts | 92° |
| 2026-04-21 18:11 | 56.70749 | 3.64952 | 37515 ft | 428 kts | 93° |
| 2026-04-21 18:12 | 56.70220 | 3.75783 | 37508 ft | 427 kts | 103° |
| 2026-04-21 18:12 | 56.68878 | 3.86308 | 37506 ft | 427 kts | 103° |
| 2026-04-21 18:13 | 56.67536 | 3.96817 | 37504 ft | 427 kts | 103° |
| 2026-04-21 18:13 | 56.66183 | 4.07261 | 37501 ft | 427 kts | 103° |
| 2026-04-21 18:14 | 56.64132 | 4.22988 | 37496 ft | 426 kts | 103° |
| 2026-04-21 18:15 | 56.62748 | 4.33459 | 37495 ft | 426 kts | 103° |
| 2026-04-21 18:15 | 56.61356 | 4.43934 | 37492 ft | 426 kts | 103° |
| 2026-04-21 18:16 | 56.59960 | 4.54400 | 37487 ft | 426 kts | 103° |
| 2026-04-21 18:16 | 56.58553 | 4.64835 | 37487 ft | 426 kts | 103° |
| 2026-04-21 18:17 | 56.57141 | 4.75268 | 37484 ft | 426 kts | 103° |
| 2026-04-21 18:17 | 56.55719 | 4.85699 | 37477 ft | 426 kts | 103° |
| 2026-04-21 18:18 | 56.54288 | 4.96115 | 37479 ft | 426 kts | 103° |
| 2026-04-21 18:18 | 56.52530 | 5.06365 | 37477 ft | 426 kts | 109° |
| 2026-04-21 18:19 | 56.50565 | 5.16498 | 37473 ft | 426 kts | 109° |
| 2026-04-21 18:19 | 56.48599 | 5.26630 | 37469 ft | 427 kts | 109° |
| 2026-04-21 18:20 | 56.46626 | 5.36770 | 37340 ft | 428 kts | 109° |
| 2026-04-21 18:20 | 56.45633 | 5.41833 | 36971 ft | 426 kts | 109° |
| 2026-04-21 18:20 | 56.44647 | 5.46852 | 36534 ft | 422 kts | 109° |
| 2026-04-21 18:20 | 56.43662 | 5.51839 | 36091 ft | 419 kts | 110° |
| 2026-04-21 18:21 | 56.42681 | 5.56777 | 35644 ft | 417 kts | 110° |
| 2026-04-21 18:21 | 56.41704 | 5.61696 | 35192 ft | 414 kts | 110° |
| 2026-04-21 18:21 | 56.40734 | 5.66582 | 34745 ft | 412 kts | 110° |
| 2026-04-21 18:21 | 56.39780 | 5.71381 | 34265 ft | 410 kts | 111° |
| 2026-04-21 18:22 | 56.38816 | 5.76206 | 33798 ft | 406 kts | 111° |
| 2026-04-21 18:22 | 56.37862 | 5.80975 | 33345 ft | 402 kts | 111° |
| 2026-04-21 18:22 | 56.36918 | 5.85691 | 32897 ft | 397 kts | 111° |
| 2026-04-21 18:22 | 56.35981 | 5.90351 | 32459 ft | 393 kts | 111° |
| 2026-04-21 18:23 | 56.35052 | 5.94967 | 32017 ft | 389 kts | 111° |
| 2026-04-21 18:23 | 56.34133 | 5.99527 | 31600 ft | 385 kts | 111° |
| 2026-04-21 18:23 | 56.33214 | 6.04089 | 31185 ft | 394 kts | 111° |
| 2026-04-21 18:23 | 56.32247 | 6.08857 | 30742 ft | 414 kts | 111° |
| 2026-04-21 18:24 | 56.31246 | 6.13760 | 30260 ft | 419 kts | 111° |
| 2026-04-21 18:24 | 56.30228 | 6.18741 | 29797 ft | 427 kts | 111° |
| 2026-04-21 18:24 | 56.29199 | 6.23760 | 29368 ft | 427 kts | 111° |
| 2026-04-21 18:24 | 56.28172 | 6.28771 | 28916 ft | 425 kts | 111° |
| 2026-04-21 18:25 | 56.27150 | 6.33757 | 28492 ft | 425 kts | 111° |
| 2026-04-21 18:25 | 56.26113 | 6.38793 | 28060 ft | 430 kts | 111° |
| 2026-04-21 18:25 | 56.25074 | 6.43836 | 27626 ft | 430 kts | 111° |
| 2026-04-21 18:25 | 56.24034 | 6.48860 | 27163 ft | 427 kts | 111° |
| 2026-04-21 18:26 | 56.22997 | 6.53853 | 26718 ft | 425 kts | 111° |
| 2026-04-21 18:26 | 56.21965 | 6.58816 | 26258 ft | 426 kts | 111° |
| 2026-04-21 18:26 | 56.20922 | 6.63838 | 25788 ft | 429 kts | 111° |
| 2026-04-21 18:26 | 56.20229 | 6.67170 | 25472 ft | 429 kts | 111° |
| 2026-04-21 18:27 | 56.19188 | 6.72163 | 24983 ft | 426 kts | 111° |
| 2026-04-21 18:27 | 56.18141 | 6.77158 | 24491 ft | 434 kts | 111° |
| 2026-04-21 18:27 | 56.17063 | 6.82278 | 23976 ft | 441 kts | 111° |
| 2026-04-21 18:27 | 56.15625 | 6.89095 | 23238 ft | 440 kts | 111° |
| 2026-04-21 18:28 | 56.14887 | 6.92573 | 22893 ft | 439 kts | 111° |
| 2026-04-21 18:28 | 56.13815 | 6.97604 | 22375 ft | 436 kts | 111° |
| 2026-04-21 18:28 | 56.12721 | 7.02724 | 21853 ft | 433 kts | 111° |
| 2026-04-21 18:28 | 56.11659 | 7.07688 | 21340 ft | 430 kts | 111° |
| 2026-04-21 18:29 | 56.10592 | 7.12682 | 20830 ft | 428 kts | 111° |
| 2026-04-21 18:29 | 56.09548 | 7.17595 | 20471 ft | 412 kts | 111° |
| 2026-04-21 18:29 | 56.08561 | 7.22203 | 20272 ft | 381 kts | 111° |
| 2026-04-21 18:29 | 56.07641 | 7.26478 | 20000 ft | 355 kts | 111° |
| 2026-04-21 18:30 | 56.06766 | 7.30532 | 19316 ft | 344 kts | 111° |
| 2026-04-21 18:30 | 56.05915 | 7.34478 | 18643 ft | 335 kts | 111° |
| 2026-04-21 18:30 | 56.05081 | 7.38334 | 18072 ft | 330 kts | 110° |
| 2026-04-21 18:30 | 56.04257 | 7.42119 | 17709 ft | 324 kts | 110° |
| 2026-04-21 18:31 | 56.03441 | 7.45858 | 17321 ft | 320 kts | 110° |
| 2026-04-21 18:31 | 56.02640 | 7.49534 | 16937 ft | 316 kts | 110° |
| 2026-04-21 18:31 | 56.01846 | 7.53174 | 16554 ft | 313 kts | 110° |
| 2026-04-21 18:31 | 56.01061 | 7.56782 | 16179 ft | 310 kts | 110° |
| 2026-04-21 18:32 | 56.00283 | 7.60364 | 15806 ft | 307 kts | 110° |
| 2026-04-21 18:32 | 55.99509 | 7.63904 | 15434 ft | 305 kts | 110° |
| 2026-04-21 18:32 | 55.98748 | 7.67381 | 15072 ft | 303 kts | 110° |
| 2026-04-21 18:32 | 55.97974 | 7.70891 | 14705 ft | 302 kts | 110° |
| 2026-04-21 18:33 | 55.97207 | 7.74371 | 14332 ft | 301 kts | 110° |
| 2026-04-21 18:33 | 55.96443 | 7.77837 | 13946 ft | 300 kts | 110° |
| 2026-04-21 18:33 | 55.95682 | 7.81283 | 13600 ft | 297 kts | 110° |
| 2026-04-21 18:33 | 55.94921 | 7.84705 | 13211 ft | 295 kts | 110° |
| 2026-04-21 18:34 | 55.94167 | 7.88096 | 12847 ft | 293 kts | 110° |
| 2026-04-21 18:34 | 55.93425 | 7.91439 | 12503 ft | 287 kts | 110° |
| 2026-04-21 18:34 | 55.92694 | 7.94733 | 12140 ft | 286 kts | 110° |
| 2026-04-21 18:34 | 55.91963 | 7.98030 | 11792 ft | 284 kts | 110° |
| 2026-04-21 18:35 | 55.91479 | 8.00202 | 11553 ft | 284 kts | 110° |
| 2026-04-21 18:35 | 55.90507 | 8.04566 | 11086 ft | 282 kts | 110° |
| 2026-04-21 18:35 | 55.89779 | 8.07819 | 10744 ft | 282 kts | 110° |
| 2026-04-21 18:35 | 55.89053 | 8.11051 | 10404 ft | 281 kts | 110° |
| 2026-04-21 18:36 | 55.88347 | 8.14181 | 10252 ft | 263 kts | 109° |
| 2026-04-21 18:36 | 55.87680 | 8.17133 | 9875 ft | 254 kts | 109° |
| 2026-04-21 18:36 | 55.87017 | 8.20082 | 9421 ft | 259 kts | 109° |
| 2026-04-21 18:36 | 55.86356 | 8.23020 | 9138 ft | 251 kts | 109° |
| 2026-04-21 18:37 | 55.85708 | 8.25882 | 8660 ft | 248 kts | 109° |
| 2026-04-21 18:37 | 55.85064 | 8.28722 | 8168 ft | 246 kts | 109° |
| 2026-04-21 18:37 | 55.84428 | 8.31542 | 7790 ft | 245 kts | 109° |
| 2026-04-21 18:37 | 55.83790 | 8.34379 | 7465 ft | 248 kts | 109° |
| 2026-04-21 18:38 | 55.83147 | 8.37225 | 7155 ft | 248 kts | 109° |
| 2026-04-21 18:38 | 55.82498 | 8.40077 | 6840 ft | 249 kts | 109° |
| 2026-04-21 18:38 | 55.81854 | 8.42902 | 6505 ft | 243 kts | 110° |
| 2026-04-21 18:38 | 55.81219 | 8.45674 | 6193 ft | 242 kts | 109° |
| 2026-04-21 18:39 | 55.80587 | 8.48447 | 5885 ft | 241 kts | 109° |
| 2026-04-21 18:39 | 55.79957 | 8.51209 | 5576 ft | 241 kts | 109° |
| 2026-04-21 18:39 | 55.79325 | 8.53963 | 5280 ft | 240 kts | 109° |
| 2026-04-21 18:39 | 55.78695 | 8.56709 | 4973 ft | 240 kts | 109° |
| 2026-04-21 18:40 | 55.78069 | 8.59445 | 4657 ft | 239 kts | 109° |
| 2026-04-21 18:40 | 55.77444 | 8.62165 | 4491 ft | 233 kts | 109° |
| 2026-04-21 18:40 | 55.77045 | 8.63901 | 4450 ft | 226 kts | 109° |
| 2026-04-21 18:40 | 55.76269 | 8.67293 | 4330 ft | 219 kts | 109° |
| 2026-04-21 18:41 | 55.75692 | 8.69793 | 4235 ft | 219 kts | 109° |
| 2026-04-21 18:41 | 55.75116 | 8.72285 | 4136 ft | 217 kts | 109° |
| 2026-04-21 18:41 | 55.74553 | 8.74710 | 4045 ft | 208 kts | 109° |
| 2026-04-21 18:41 | 55.74017 | 8.77027 | 3952 ft | 198 kts | 109° |
| 2026-04-21 18:42 | 55.73501 | 8.79252 | 3866 ft | 193 kts | 109° |
| 2026-04-21 18:42 | 55.73045 | 8.81484 | 3765 ft | 191 kts | 97° |
| 2026-04-21 18:42 | 55.73002 | 8.83798 | 3565 ft | 188 kts | 84° |
| 2026-04-21 18:42 | 55.73083 | 8.86105 | 3320 ft | 187 kts | 84° |
| 2026-04-21 18:43 | 55.73162 | 8.88410 | 3069 ft | 187 kts | 84° |
| 2026-04-21 18:43 | 55.73238 | 8.90691 | 2833 ft | 182 kts | 84° |
| 2026-04-21 18:43 | 55.73312 | 8.92914 | 2565 ft | 178 kts | 84° |
| 2026-04-21 18:43 | 55.73383 | 8.95046 | 2324 ft | 173 kts | 84° |
| 2026-04-21 18:44 | 55.73453 | 8.97179 | 2092 ft | 168 kts | 84° |
| 2026-04-21 18:44 | 55.73516 | 8.99115 | 1882 ft | 150 kts | 84° |
| 2026-04-21 18:44 | 55.73573 | 9.00888 | 1667 ft | 139 kts | 85° |
| 2026-04-21 18:44 | 55.73629 | 9.02581 | 1480 ft | 136 kts | 85° |
| 2026-04-21 18:45 | 55.73683 | 9.04249 | 1295 ft | 135 kts | 85° |
| 2026-04-21 18:45 | 55.73737 | 9.05903 | 1109 ft | 134 kts | 86° |
| 2026-04-21 18:45 | 55.73790 | 9.07550 | 919 ft | 134 kts | 87° |
| 2026-04-21 18:45 | 55.73842 | 9.09199 | 739 ft | 134 kts | 88° |
| 2026-04-21 18:46 | 55.73896 | 9.10854 | 565 ft | 134 kts | 88° |
| 2026-04-21 18:46 | 55.73954 | 9.12501 | 371 ft | 134 kts | 89° |
| 2026-04-21 18:46 | 55.74004 | 9.14145 | 225 ft | 127 kts | 88° |
| 2026-04-21 18:46 | 55.74042 | 9.15484 | 216 ft | 85 kts | 87° |
| 2026-04-21 18:47 | 55.74070 | 9.16363 | 216 ft | 66 kts | 87° |
| 2026-04-21 18:47 | 55.74085 | 9.16811 | 219 ft | 19 kts | 85° |
| 2026-04-21 18:47 | 55.74161 | 9.16911 | 216 ft | 8 kts | 357° |
| 2026-04-21 18:47 | 55.74225 | 9.16901 | 220 ft | 11 kts | 348° |
| 2026-04-21 18:48 | 55.74250 | 9.16780 | 221 ft | 15 kts | 267° |
| 2026-04-21 18:48 | 55.74244 | 9.16559 | 216 ft | 20 kts | 267° |
| 2026-04-21 18:48 | 55.74234 | 9.16290 | 216 ft | 24 kts | 266° |
| 2026-04-21 18:48 | 55.74225 | 9.15979 | 219 ft | 27 kts | 267° |
| 2026-04-21 18:49 | 55.74214 | 9.15637 | 216 ft | 29 kts | 267° |
| 2026-04-21 18:49 | 55.74204 | 9.15280 | 216 ft | 29 kts | 266° |
| 2026-04-21 18:49 | 55.74199 | 9.15061 | 216 ft | 21 kts | 277° |
| 2026-04-21 18:49 | 55.74297 | 9.14990 | 216 ft | 22 kts | 356° |
| 2026-04-21 18:50 | 55.74442 | 9.14947 | 223 ft | 19 kts | 311° |
| 2026-04-21 18:50 | 55.74447 | 9.14733 | 216 ft | 19 kts | 266° |
| 2026-04-21 18:50 | 55.74442 | 9.14521 | 219 ft | 11 kts | 281° |
| 2026-04-21 18:50 | 55.74505 | 9.14489 | 222 ft | 5 kts | 356° |
| 2026-04-21 18:51 | 55.74528 | 9.14486 | 219 ft | 0 kts | 357° |